createdAt,value
2022-09-14T00:00:58.480Z,13.96
2022-09-14T00:02:11.204Z,13.98
2022-09-14T00:03:14.822Z,13.98
2022-09-14T00:04:20.617Z,13.96
2022-09-14T00:05:23.473Z,13.95
2022-09-14T00:06:27.222Z,13.95
2022-09-14T00:07:30.153Z,13.99
2022-09-14T00:08:33.558Z,14.00
2022-09-14T00:09:36.581Z,13.99
2022-09-14T00:10:41.679Z,13.97
2022-09-14T00:11:44.750Z,13.98
2022-09-14T00:12:47.698Z,13.97
2022-09-14T00:13:51.313Z,13.97
2022-09-14T00:14:54.328Z,13.96
2022-09-14T00:15:57.336Z,13.94
2022-09-14T00:17:00.537Z,13.96
2022-09-14T00:18:04.010Z,13.94
2022-09-14T00:19:14.106Z,13.93
2022-09-14T00:20:17.050Z,13.91
2022-09-14T00:21:20.458Z,13.90
2022-09-14T00:22:23.439Z,13.91
2022-09-14T00:23:26.302Z,13.91
2022-09-14T00:24:32.949Z,13.92
2022-09-14T00:25:35.878Z,13.92
2022-09-14T00:26:38.889Z,13.92
2022-09-14T00:27:41.764Z,13.91
2022-09-14T00:28:47.578Z,13.90
2022-09-14T00:29:50.594Z,13.94
2022-09-14T00:30:53.500Z,13.91
2022-09-14T00:31:57.211Z,13.89
2022-09-14T00:33:00.150Z,13.85
2022-09-14T00:34:03.603Z,13.83
2022-09-14T00:35:07.278Z,13.82
2022-09-14T00:36:24.715Z,13.80
2022-09-14T00:37:27.613Z,13.81
2022-09-14T00:38:30.407Z,13.81
2022-09-14T00:39:33.473Z,13.81
2022-09-14T00:40:37.582Z,13.80
2022-09-14T00:41:43.257Z,13.80
2022-09-14T00:42:46.195Z,13.82
2022-09-14T00:43:59.479Z,13.81
2022-09-14T00:45:13.413Z,13.83
2022-09-14T00:46:16.357Z,13.77
2022-09-14T00:47:19.657Z,13.74
2022-09-14T00:48:29.908Z,13.75
2022-09-14T00:49:39.985Z,13.76
2022-09-14T00:50:43.152Z,13.77
2022-09-14T00:51:49.929Z,13.76
2022-09-14T00:52:52.938Z,13.75
2022-09-14T00:53:56.140Z,13.76
2022-09-14T00:55:05.743Z,13.73
2022-09-14T00:56:08.784Z,13.70
2022-09-14T00:57:12.006Z,13.68
2022-09-14T00:58:14.977Z,13.68
2022-09-14T00:59:23.575Z,13.70
2022-09-14T01:00:28.802Z,13.69
2022-09-14T01:01:35.731Z,13.70
2022-09-14T01:02:40.044Z,13.75
2022-09-14T01:03:43.252Z,13.74
2022-09-14T01:04:47.662Z,13.72
2022-09-14T01:06:02.662Z,13.70
2022-09-14T01:07:28.066Z,13.71
2022-09-14T01:08:59.746Z,13.71
2022-09-14T01:10:24.122Z,13.71
2022-09-14T01:11:57.691Z,13.73
2022-09-14T01:13:12.887Z,13.76
2022-09-14T01:14:45.438Z,13.76
2022-09-14T01:16:13.145Z,13.72
2022-09-14T01:17:35.603Z,13.69
2022-09-14T01:18:45.499Z,13.70
2022-09-14T01:20:14.849Z,13.71
2022-09-14T01:21:27.227Z,13.72
2022-09-14T01:22:43.360Z,13.70
2022-09-14T01:24:07.698Z,13.71
2022-09-14T01:25:28.175Z,13.73
2022-09-14T01:26:37.144Z,13.74
2022-09-14T01:27:44.277Z,13.74
2022-09-14T01:28:59.102Z,13.73
2022-09-14T01:30:21.679Z,13.71
2022-09-14T01:31:34.844Z,13.70
2022-09-14T01:32:57.742Z,13.69
2022-09-14T01:34:26.984Z,13.69
2022-09-14T01:35:35.909Z,13.71
2022-09-14T01:36:43.462Z,13.72
2022-09-14T01:37:55.966Z,13.73
2022-09-14T01:39:01.878Z,13.72
2022-09-14T01:40:13.270Z,13.73
2022-09-14T01:41:21.114Z,13.72
2022-09-14T01:42:27.027Z,13.70
2022-09-14T01:43:36.851Z,13.69
2022-09-14T01:44:46.140Z,13.69
2022-09-14T01:45:59.804Z,13.69
2022-09-14T01:47:11.172Z,13.69
2022-09-14T01:48:17.240Z,13.71
2022-09-14T01:49:33.210Z,13.70
2022-09-14T01:50:41.937Z,13.68
2022-09-14T01:52:20.104Z,13.66
2022-09-14T01:53:31.373Z,13.65
2022-09-14T01:54:46.410Z,13.66
2022-09-14T01:55:57.002Z,13.68
2022-09-14T01:57:24.719Z,13.69
2022-09-14T01:58:51.406Z,13.70
2022-09-14T02:00:07.668Z,13.72
2022-09-14T02:01:15.598Z,13.70
2022-09-14T02:02:22.269Z,13.71
2022-09-14T02:03:37.562Z,13.72
2022-09-14T02:04:50.790Z,13.75
2022-09-14T02:07:06.678Z,13.78
2022-09-14T02:08:09.588Z,13.79
2022-09-14T02:09:16.257Z,13.80
2022-09-14T02:10:19.261Z,13.81
2022-09-14T02:11:22.239Z,13.80
2022-09-14T02:12:26.126Z,13.81
2022-09-14T02:13:29.627Z,13.81
2022-09-14T02:14:32.769Z,13.80
2022-09-14T02:15:37.329Z,13.78
2022-09-14T02:16:44.024Z,13.78
2022-09-14T02:17:48.149Z,13.80
2022-09-14T02:18:51.247Z,13.81
2022-09-14T02:19:58.243Z,13.82
2022-09-14T02:21:25.999Z,13.83
2022-09-14T02:22:30.808Z,13.82
2022-09-14T02:23:36.441Z,13.83
2022-09-14T02:24:39.830Z,13.81
2022-09-14T02:25:42.655Z,13.82
2022-09-14T02:26:50.216Z,13.81
2022-09-14T02:27:53.127Z,13.83
2022-09-14T02:28:57.547Z,13.84
2022-09-14T02:30:00.625Z,13.85
2022-09-14T02:31:43.348Z,13.87
2022-09-14T02:33:08.584Z,13.88
2022-09-14T02:34:27.714Z,13.89
2022-09-14T02:35:47.645Z,13.88
2022-09-14T02:36:56.845Z,13.90
2022-09-14T02:38:11.493Z,13.95
2022-09-14T02:39:48.176Z,13.96
2022-09-14T02:40:56.691Z,13.98
2022-09-14T02:42:22.466Z,14.00
2022-09-14T02:43:44.172Z,14.03
2022-09-14T02:44:54.448Z,14.08
2022-09-14T02:46:06.773Z,14.10
2022-09-14T02:47:33.422Z,14.11
2022-09-14T02:48:50.273Z,14.12
2022-09-14T02:50:00.800Z,14.10
2022-09-14T02:51:09.542Z,14.10
2022-09-14T02:53:05.266Z,14.12
2022-09-14T02:54:19.313Z,14.11
2022-09-14T02:55:26.312Z,14.15
2022-09-14T02:56:29.407Z,14.18
2022-09-14T02:57:32.462Z,14.16
2022-09-14T02:58:44.395Z,14.19
2022-09-14T02:59:47.507Z,14.22
2022-09-14T03:00:51.042Z,14.23
2022-09-14T03:01:54.189Z,14.21
2022-09-14T03:02:57.521Z,14.22
2022-09-14T03:04:00.404Z,14.20
2022-09-14T03:05:03.432Z,14.19
2022-09-14T03:06:07.051Z,14.19
2022-09-14T03:07:10.033Z,14.20
2022-09-14T03:08:13.657Z,14.22
2022-09-14T03:10:24.297Z,14.27
2022-09-14T03:11:27.200Z,14.31
2022-09-14T03:12:30.038Z,14.33
2022-09-14T03:13:35.228Z,14.38
2022-09-14T03:14:38.123Z,14.36
2022-09-14T03:15:41.274Z,14.43
2022-09-14T03:16:44.345Z,14.44
2022-09-14T03:17:49.130Z,14.43
2022-09-14T03:18:52.270Z,14.42
2022-09-14T03:19:55.185Z,14.42
2022-09-14T03:21:09.865Z,14.43
2022-09-14T03:22:12.780Z,14.44
2022-09-14T03:23:15.782Z,14.46
2022-09-14T03:24:18.753Z,14.47
2022-09-14T03:25:23.623Z,14.49
2022-09-14T03:26:29.911Z,14.48
2022-09-14T03:27:32.948Z,14.54
2022-09-14T03:28:36.347Z,14.53
2022-09-14T03:29:39.170Z,14.52
2022-09-14T03:30:42.006Z,14.52
2022-09-14T03:31:44.949Z,14.53
2022-09-14T03:32:48.306Z,14.53
2022-09-14T03:33:57.031Z,14.52
2022-09-14T03:35:00.279Z,14.56
2022-09-14T03:36:24.237Z,14.57
2022-09-14T03:37:33.815Z,14.59
2022-09-14T03:38:36.773Z,14.63
2022-09-14T03:39:39.688Z,14.61
2022-09-14T03:40:42.571Z,14.65
2022-09-14T03:41:45.389Z,14.63
2022-09-14T03:42:50.827Z,14.65
2022-09-14T03:43:53.733Z,14.63
2022-09-14T03:44:57.013Z,14.63
2022-09-14T03:46:06.146Z,14.60
2022-09-14T03:47:09.184Z,14.61
2022-09-14T03:48:15.713Z,14.60
2022-09-14T03:49:18.758Z,14.60
2022-09-14T03:50:21.762Z,14.57
2022-09-14T03:51:24.864Z,14.54
2022-09-14T03:52:27.789Z,14.53
2022-09-14T03:53:31.461Z,14.51
2022-09-14T03:54:34.325Z,14.54
2022-09-14T03:55:37.242Z,14.54
2022-09-14T03:56:40.892Z,14.51
2022-09-14T03:57:43.780Z,14.47
2022-09-14T03:58:47.951Z,14.45
2022-09-14T03:59:51.344Z,14.44
2022-09-14T04:00:54.186Z,14.42
2022-09-14T04:01:57.140Z,14.41
2022-09-14T04:03:01.124Z,14.40
2022-09-14T04:04:04.471Z,14.38
2022-09-14T04:05:07.938Z,14.38
2022-09-14T04:06:11.510Z,14.36
2022-09-14T04:07:20.418Z,14.35
2022-09-14T04:08:24.054Z,14.36
2022-09-14T04:09:27.040Z,14.33
2022-09-14T04:10:29.919Z,14.31
2022-09-14T04:11:34.519Z,14.31
2022-09-14T04:12:38.731Z,14.26
2022-09-14T04:13:42.255Z,14.24
2022-09-14T04:14:45.144Z,14.23
2022-09-14T04:16:00.528Z,14.23
2022-09-14T04:17:04.346Z,14.23
2022-09-14T04:18:07.221Z,14.20
2022-09-14T04:19:12.169Z,14.16
2022-09-14T04:20:15.344Z,14.16
2022-09-14T04:21:22.202Z,14.15
2022-09-14T04:22:25.169Z,14.14
2022-09-14T04:23:28.543Z,14.10
2022-09-14T04:24:31.733Z,14.09
2022-09-14T04:25:34.598Z,14.09
2022-09-14T04:26:37.470Z,14.09
2022-09-14T04:27:40.332Z,14.10
2022-09-14T04:28:43.751Z,14.07
2022-09-14T04:29:50.382Z,14.09
2022-09-14T04:31:01.504Z,14.09
2022-09-14T04:32:04.608Z,14.09
2022-09-14T04:33:07.458Z,14.07
2022-09-14T04:34:13.932Z,14.05
2022-09-14T04:35:16.981Z,14.04
2022-09-14T04:36:23.918Z,14.04
2022-09-14T04:37:26.731Z,14.04
2022-09-14T04:38:31.483Z,14.07
2022-09-14T04:39:34.534Z,14.07
2022-09-14T04:40:41.713Z,14.07
2022-09-14T04:41:44.541Z,14.13
2022-09-14T04:42:47.636Z,14.12
2022-09-14T04:43:53.808Z,14.14
2022-09-14T04:44:57.241Z,14.15
2022-09-14T04:46:05.141Z,14.16
2022-09-14T04:47:08.002Z,14.21
2022-09-14T04:48:10.877Z,14.21
2022-09-14T04:49:14.446Z,14.19
2022-09-14T04:50:17.405Z,14.22
2022-09-14T04:51:26.983Z,14.22
2022-09-14T04:52:29.881Z,14.22
2022-09-14T04:53:37.154Z,14.28
2022-09-14T04:54:39.961Z,14.28
2022-09-14T04:55:42.996Z,14.28
2022-09-14T04:56:46.285Z,14.31
2022-09-14T04:57:49.631Z,14.32
2022-09-14T04:58:55.349Z,14.34
2022-09-14T04:59:58.277Z,14.34
2022-09-14T05:01:08.921Z,14.36
2022-09-14T05:02:11.902Z,14.37
2022-09-14T05:03:14.960Z,14.37
2022-09-14T05:04:17.984Z,14.42
2022-09-14T05:05:20.857Z,14.43
2022-09-14T05:06:27.030Z,14.43
2022-09-14T05:07:33.937Z,14.43
2022-09-14T05:08:38.868Z,14.42
2022-09-14T05:09:42.180Z,14.42
2022-09-14T05:10:45.210Z,14.43
2022-09-14T05:11:50.099Z,14.44
2022-09-14T05:12:53.047Z,14.44
2022-09-14T05:14:02.829Z,14.45
2022-09-14T05:15:06.634Z,14.48
2022-09-14T05:16:24.223Z,14.49
2022-09-14T05:17:27.258Z,14.51
2022-09-14T05:18:34.273Z,14.59
2022-09-14T05:19:37.192Z,14.61
2022-09-14T05:20:40.083Z,14.64
2022-09-14T05:21:43.399Z,14.65
2022-09-14T05:22:50.506Z,14.68
2022-09-14T05:23:55.390Z,14.70
2022-09-14T05:24:58.249Z,14.73
2022-09-14T05:26:01.569Z,14.75
2022-09-14T05:27:04.582Z,14.78
2022-09-14T05:28:10.849Z,14.82
2022-09-14T05:29:15.510Z,14.85
2022-09-14T05:30:18.457Z,14.88
2022-09-14T05:31:22.436Z,14.91
2022-09-14T05:32:25.334Z,14.94
2022-09-14T05:33:28.296Z,14.96
2022-09-14T05:34:31.140Z,14.98
2022-09-14T05:35:34.012Z,15.01
2022-09-14T05:36:38.348Z,15.03
2022-09-14T05:37:41.284Z,15.07
2022-09-14T05:38:44.365Z,15.10
2022-09-14T05:39:47.175Z,15.11
2022-09-14T05:40:55.169Z,15.15
2022-09-14T05:41:58.117Z,15.18
2022-09-14T05:43:00.971Z,15.21
2022-09-14T05:44:04.408Z,15.25
2022-09-14T05:45:07.759Z,15.27
2022-09-14T05:46:13.302Z,15.30
2022-09-14T05:47:16.280Z,15.32
2022-09-14T05:48:19.440Z,15.35
2022-09-14T05:49:22.298Z,15.35
2022-09-14T05:50:25.269Z,15.37
2022-09-14T05:51:28.626Z,15.38
2022-09-14T05:52:31.476Z,15.40
2022-09-14T05:53:34.857Z,15.41
2022-09-14T05:54:40.843Z,15.45
2022-09-14T05:55:43.797Z,15.48
2022-09-14T05:56:47.340Z,15.53
2022-09-14T05:57:51.277Z,15.58
2022-09-14T05:58:59.779Z,15.66
2022-09-14T06:00:03.854Z,15.68
2022-09-14T06:01:08.113Z,15.74
2022-09-14T06:02:14.410Z,15.81
2022-09-14T06:03:19.430Z,15.86
2022-09-14T06:04:22.325Z,15.91
2022-09-14T06:05:28.445Z,15.94
2022-09-14T06:06:34.443Z,15.99
2022-09-14T06:07:37.789Z,16.01
2022-09-14T06:08:41.126Z,16.04
2022-09-14T06:09:44.299Z,16.05
2022-09-14T06:10:47.167Z,16.09
2022-09-14T06:11:50.401Z,16.12
2022-09-14T06:12:55.471Z,16.20
2022-09-14T06:13:58.911Z,16.26
2022-09-14T06:15:05.869Z,16.26
2022-09-14T06:16:14.781Z,16.29
2022-09-14T06:17:17.833Z,16.32
2022-09-14T06:18:20.728Z,16.37
2022-09-14T06:19:23.766Z,16.41
2022-09-14T06:20:30.043Z,16.47
2022-09-14T06:21:35.515Z,16.53
2022-09-14T06:22:38.414Z,16.59
2022-09-14T06:23:41.725Z,16.61
2022-09-14T06:24:44.634Z,16.63
2022-09-14T06:25:47.620Z,16.67
2022-09-14T06:26:50.458Z,16.69
2022-09-14T06:27:56.057Z,16.71
2022-09-14T06:28:59.103Z,16.72
2022-09-14T06:30:01.999Z,16.77
2022-09-14T06:31:08.052Z,16.83
2022-09-14T06:32:10.939Z,16.88
2022-09-14T06:33:13.877Z,16.95
2022-09-14T06:34:16.883Z,17.00
2022-09-14T06:35:20.007Z,17.05
2022-09-14T06:36:25.261Z,17.11
2022-09-14T06:37:28.315Z,17.18
2022-09-14T06:38:31.557Z,17.25
2022-09-14T06:39:37.860Z,17.25
2022-09-14T06:40:52.439Z,17.24
2022-09-14T06:41:55.393Z,17.22
2022-09-14T06:43:02.472Z,17.20
2022-09-14T06:44:05.415Z,17.22
2022-09-14T06:45:10.834Z,17.21
2022-09-14T06:46:19.253Z,17.19
2022-09-14T06:47:22.479Z,17.20
2022-09-14T06:48:26.091Z,17.17
2022-09-14T06:49:29.247Z,17.14
2022-09-14T06:50:32.078Z,17.09
2022-09-14T06:51:39.014Z,17.04
2022-09-14T06:52:42.000Z,16.99
2022-09-14T06:53:45.897Z,16.96
2022-09-14T06:54:48.824Z,16.94
2022-09-14T06:55:52.588Z,16.92
2022-09-14T06:56:55.637Z,16.88
2022-09-14T06:57:58.691Z,16.86
2022-09-14T06:59:04.026Z,16.86
2022-09-14T07:00:07.549Z,16.86
2022-09-14T07:01:16.541Z,16.82
2022-09-14T07:02:19.862Z,16.78
2022-09-14T07:03:23.174Z,16.72
2022-09-14T07:04:26.150Z,16.70
2022-09-14T07:05:31.264Z,16.69
2022-09-14T07:06:43.728Z,16.68
2022-09-14T07:07:46.757Z,16.63
2022-09-14T07:08:51.290Z,16.63
2022-09-14T07:09:54.353Z,16.64
2022-09-14T07:10:59.131Z,16.61
2022-09-14T07:12:02.277Z,16.54
2022-09-14T07:13:05.120Z,16.49
2022-09-14T07:14:08.824Z,16.47
2022-09-14T07:15:11.858Z,16.48
2022-09-14T07:16:15.731Z,16.52
2022-09-14T07:17:18.793Z,16.48
2022-09-14T07:18:26.832Z,16.46
2022-09-14T07:19:29.927Z,16.45
2022-09-14T07:20:34.112Z,16.44
2022-09-14T07:21:37.411Z,16.43
2022-09-14T07:22:40.336Z,16.44
2022-09-14T07:23:45.150Z,16.44
2022-09-14T07:24:48.001Z,16.45
2022-09-14T07:26:04.719Z,16.44
2022-09-14T07:27:07.713Z,16.42
2022-09-14T07:28:10.826Z,16.41
2022-09-14T07:29:19.584Z,16.40
2022-09-14T07:30:30.770Z,16.42
2022-09-14T07:31:46.422Z,16.44
2022-09-14T07:32:49.257Z,16.47
2022-09-14T07:33:58.256Z,16.48
2022-09-14T07:35:02.585Z,16.53
2022-09-14T07:36:11.071Z,16.59
2022-09-14T07:37:13.894Z,16.62
2022-09-14T07:38:26.955Z,16.68
2022-09-14T07:39:38.678Z,16.71
2022-09-14T07:40:47.822Z,16.71
2022-09-14T07:41:50.666Z,16.70
2022-09-14T07:42:57.568Z,16.71
2022-09-14T07:44:05.846Z,16.71
2022-09-14T07:45:12.066Z,16.69
2022-09-14T07:46:14.904Z,16.75
2022-09-14T07:47:17.868Z,16.81
2022-09-14T07:48:21.290Z,16.82
2022-09-14T07:49:24.734Z,16.80
2022-09-14T07:50:27.974Z,16.79
2022-09-14T07:51:31.997Z,16.79
2022-09-14T07:52:38.616Z,16.80
2022-09-14T07:53:43.084Z,16.83
2022-09-14T07:54:46.006Z,16.83
2022-09-14T07:55:48.904Z,16.85
2022-09-14T07:56:51.778Z,16.86
2022-09-14T07:57:56.841Z,16.89
2022-09-14T07:59:23.856Z,16.94
2022-09-14T08:00:27.533Z,16.99
2022-09-14T08:01:30.956Z,17.02
2022-09-14T08:02:34.920Z,17.06
2022-09-14T08:03:40.508Z,17.09
2022-09-14T08:04:43.731Z,17.12
2022-09-14T08:05:46.619Z,17.25
2022-09-14T08:06:49.653Z,17.34
2022-09-14T08:07:58.619Z,17.32
2022-09-14T08:09:06.742Z,17.32
2022-09-14T08:10:09.799Z,17.33
2022-09-14T08:11:16.045Z,17.30
2022-09-14T08:12:19.048Z,17.31
2022-09-14T08:13:22.014Z,17.34
2022-09-14T08:14:29.034Z,17.36
2022-09-14T08:15:33.582Z,17.33
2022-09-14T08:16:41.040Z,17.33
2022-09-14T08:17:44.206Z,17.36
2022-09-14T08:18:48.231Z,17.37
2022-09-14T08:19:52.442Z,17.38
2022-09-14T08:20:55.535Z,17.39
2022-09-14T08:21:58.479Z,17.41
2022-09-14T08:23:01.396Z,17.45
2022-09-14T08:24:04.587Z,17.50
2022-09-14T08:25:09.017Z,17.53
2022-09-14T08:26:16.796Z,17.57
2022-09-14T08:27:19.690Z,17.64
2022-09-14T08:28:22.567Z,17.66
2022-09-14T08:29:26.275Z,17.66
2022-09-14T08:30:29.218Z,17.68
2022-09-14T08:31:40.706Z,17.70
2022-09-14T08:32:43.573Z,17.70
2022-09-14T08:33:51.384Z,17.73
2022-09-14T08:34:54.282Z,17.74
2022-09-14T08:35:58.433Z,17.76
2022-09-14T08:37:01.413Z,17.84
2022-09-14T08:38:04.335Z,17.87
2022-09-14T08:39:10.921Z,17.86
2022-09-14T08:40:17.959Z,17.88
2022-09-14T08:41:31.035Z,17.91
2022-09-14T08:42:34.111Z,17.99
2022-09-14T08:43:39.142Z,18.06
2022-09-14T08:44:47.314Z,18.13
2022-09-14T08:45:53.432Z,18.27
2022-09-14T08:47:04.391Z,18.38
2022-09-14T08:48:26.077Z,18.48
2022-09-14T08:49:35.635Z,18.62
2022-09-14T08:50:39.139Z,18.66
2022-09-14T08:51:43.301Z,18.72
2022-09-14T08:52:53.558Z,18.73
2022-09-14T08:53:59.794Z,18.81
2022-09-14T08:55:17.740Z,18.82
2022-09-14T08:56:27.548Z,18.82
2022-09-14T08:57:47.604Z,18.87
2022-09-14T08:59:09.072Z,18.85
2022-09-14T09:00:18.171Z,18.94
2022-09-14T09:01:50.920Z,19.00
2022-09-14T09:03:20.585Z,19.03
2022-09-14T09:04:41.327Z,19.12
2022-09-14T09:06:15.968Z,19.07
2022-09-14T09:07:33.174Z,19.06
2022-09-14T09:08:56.982Z,19.11
2022-09-14T09:10:00.285Z,19.14
2022-09-14T09:11:05.905Z,19.15
2022-09-14T09:12:15.257Z,19.14
2022-09-14T09:13:22.833Z,19.18
2022-09-14T09:14:33.923Z,19.29
2022-09-14T09:15:45.333Z,19.28
2022-09-14T09:16:52.407Z,19.30
2022-09-14T09:18:01.547Z,19.40
2022-09-14T09:19:12.106Z,19.53
2022-09-14T09:20:21.215Z,19.54
2022-09-14T09:21:31.350Z,19.52
2022-09-14T09:23:15.064Z,19.54
2022-09-14T09:24:26.519Z,19.60
2022-09-14T09:25:39.667Z,19.68
2022-09-14T09:26:43.301Z,19.73
2022-09-14T09:27:47.947Z,19.81
2022-09-14T09:28:56.958Z,19.84
2022-09-14T09:29:59.885Z,19.82
2022-09-14T09:31:05.753Z,19.83
2022-09-14T09:32:17.696Z,19.81
2022-09-14T09:33:24.892Z,19.85
2022-09-14T09:34:30.746Z,19.81
2022-09-14T09:35:34.109Z,19.85
2022-09-14T09:36:41.185Z,19.89
2022-09-14T09:37:44.050Z,19.98
2022-09-14T09:38:47.027Z,20.03
2022-09-14T09:39:50.675Z,19.99
2022-09-14T09:41:07.881Z,20.01
2022-09-14T09:42:22.878Z,20.03
2022-09-14T09:43:45.786Z,20.08
2022-09-14T09:45:03.628Z,20.14
2022-09-14T09:46:09.617Z,20.25
2022-09-14T09:47:12.655Z,20.19
2022-09-14T09:48:18.953Z,20.19
2022-09-14T09:49:37.475Z,20.20
2022-09-14T09:50:54.973Z,20.20
2022-09-14T09:52:08.053Z,20.21
2022-09-14T09:53:17.481Z,20.20
2022-09-14T09:54:26.655Z,20.25
2022-09-14T09:55:38.618Z,20.31
2022-09-14T09:56:58.148Z,20.30
2022-09-14T09:58:28.146Z,20.25
2022-09-14T09:59:38.745Z,20.27
2022-09-14T10:00:42.197Z,20.29
2022-09-14T10:01:45.281Z,20.28
2022-09-14T10:02:48.999Z,20.29
2022-09-14T10:04:20.079Z,20.27
2022-09-14T10:05:31.938Z,20.36
2022-09-14T10:06:46.773Z,20.42
2022-09-14T10:07:49.559Z,20.48
2022-09-14T10:08:55.399Z,20.55
2022-09-14T10:10:11.594Z,20.63
2022-09-14T10:11:36.822Z,20.73
2022-09-14T10:12:51.137Z,20.84
2022-09-14T10:13:57.094Z,21.01
2022-09-14T10:15:15.891Z,21.06
2022-09-14T10:16:26.963Z,21.12
2022-09-14T10:17:29.919Z,21.15
2022-09-14T10:18:33.012Z,21.27
2022-09-14T10:19:37.243Z,21.29
2022-09-14T10:21:07.305Z,21.28
2022-09-14T10:22:26.790Z,21.33
2022-09-14T10:23:33.687Z,21.34
2022-09-14T10:24:38.250Z,21.30
2022-09-14T10:25:41.278Z,21.29
2022-09-14T10:26:44.397Z,21.33
2022-09-14T10:28:01.244Z,21.33
2022-09-14T10:29:39.230Z,21.40
2022-09-14T10:30:49.561Z,21.48
2022-09-14T10:31:55.432Z,21.58
2022-09-14T10:33:05.242Z,21.61
2022-09-14T10:34:19.647Z,21.68
2022-09-14T10:35:26.109Z,21.69
2022-09-14T10:36:30.785Z,21.73
2022-09-14T10:37:40.695Z,21.67
2022-09-14T10:39:16.406Z,21.64
2022-09-14T10:40:25.519Z,21.66
2022-09-14T10:41:53.287Z,21.62
2022-09-14T10:42:56.270Z,21.55
2022-09-14T10:44:33.983Z,21.60
2022-09-14T10:45:44.213Z,21.49
2022-09-14T10:47:10.313Z,21.42
2022-09-14T10:48:27.170Z,21.49
2022-09-14T10:49:48.534Z,21.49
2022-09-14T10:51:26.825Z,21.49
2022-09-14T10:53:02.718Z,21.52
2022-09-14T10:54:15.770Z,21.61
2022-09-14T10:55:44.192Z,21.67
2022-09-14T10:57:13.428Z,21.68
2022-09-14T10:58:25.043Z,21.71
2022-09-14T10:59:46.463Z,21.76
2022-09-14T11:01:11.833Z,21.74
2022-09-14T11:02:20.490Z,21.79
2022-09-14T11:03:42.776Z,21.79
2022-09-14T11:05:08.265Z,21.73
2022-09-14T11:06:16.220Z,21.81
2022-09-14T11:07:52.676Z,21.93
2022-09-14T11:09:20.634Z,21.95
2022-09-14T11:10:41.440Z,21.84
2022-09-14T11:12:08.370Z,21.73
2022-09-14T11:13:17.274Z,21.67
2022-09-14T11:14:34.791Z,21.70
2022-09-14T11:15:56.527Z,21.73
2022-09-14T11:17:16.786Z,21.74
2022-09-14T11:18:34.724Z,21.75
2022-09-14T11:20:04.549Z,21.79
2022-09-14T11:22:12.132Z,21.74
2022-09-14T11:23:36.128Z,21.64
2022-09-14T11:24:45.219Z,21.61
2022-09-14T11:26:03.077Z,21.51
2022-09-14T11:27:39.239Z,21.53
2022-09-14T11:28:52.911Z,21.42
2022-09-14T11:30:06.351Z,21.42
2022-09-14T11:31:24.783Z,21.35
2022-09-14T11:32:33.099Z,21.37
2022-09-14T11:33:38.617Z,21.38
2022-09-14T11:35:11.244Z,21.28
2022-09-14T11:36:20.670Z,21.26
2022-09-14T11:37:35.620Z,21.18
2022-09-14T11:38:50.105Z,21.17
2022-09-14T11:40:07.263Z,21.12
2022-09-14T11:41:39.969Z,21.18
2022-09-14T11:43:10.095Z,21.24
2022-09-14T11:44:21.101Z,21.33
2022-09-14T11:45:31.134Z,21.32
2022-09-14T11:46:42.776Z,21.24
2022-09-14T11:47:58.292Z,21.28
2022-09-14T11:49:43.374Z,21.28
2022-09-14T11:50:47.755Z,21.28
2022-09-14T11:51:57.546Z,21.46
2022-09-14T11:53:14.830Z,21.45
2022-09-14T11:54:20.156Z,21.39
2022-09-14T11:55:23.542Z,21.33
2022-09-14T11:56:30.958Z,21.35
2022-09-14T11:57:37.109Z,21.39
2022-09-14T11:58:40.331Z,21.40
2022-09-14T11:59:44.718Z,21.48
2022-09-14T12:00:53.191Z,21.45
2022-09-14T12:02:00.019Z,21.51
2022-09-14T12:03:05.884Z,21.49
2022-09-14T12:04:15.842Z,21.52
2022-09-14T12:05:18.699Z,21.53
2022-09-14T12:06:34.110Z,21.59
2022-09-14T12:07:39.937Z,21.64
2022-09-14T12:08:42.892Z,21.70
2022-09-14T12:09:46.486Z,21.73
2022-09-14T12:11:26.445Z,21.76
2022-09-14T12:12:32.522Z,21.77
2022-09-14T12:13:36.827Z,21.95
2022-09-14T12:14:44.303Z,22.05
2022-09-14T12:15:47.319Z,21.99
2022-09-14T12:17:38.324Z,22.03
2022-09-14T12:18:42.649Z,22.03
2022-09-14T12:19:48.398Z,22.17
2022-09-14T12:21:02.013Z,22.11
2022-09-14T12:22:27.581Z,22.14
2022-09-14T12:23:43.695Z,22.10
2022-09-14T12:24:58.589Z,22.09
2022-09-14T12:26:11.793Z,22.13
2022-09-14T12:27:22.119Z,22.21
2022-09-14T12:28:35.734Z,22.19
2022-09-14T12:29:38.921Z,22.15
2022-09-14T12:30:41.817Z,22.09
2022-09-14T12:31:45.174Z,22.07
2022-09-14T12:32:49.474Z,22.09
2022-09-14T12:34:17.724Z,22.19
2022-09-14T12:35:32.667Z,22.22
2022-09-14T12:36:38.407Z,22.30
2022-09-14T12:37:41.739Z,22.37
2022-09-14T12:38:50.883Z,22.43
2022-09-14T12:40:32.607Z,22.52
2022-09-14T12:41:35.519Z,22.56
2022-09-14T12:42:38.430Z,22.53
2022-09-14T12:43:41.364Z,22.57
2022-09-14T12:44:44.376Z,22.65
2022-09-14T12:45:50.936Z,22.75
2022-09-14T12:46:55.149Z,22.76
2022-09-14T12:47:58.165Z,22.75
2022-09-14T12:49:04.542Z,22.76
2022-09-14T12:50:20.231Z,22.79
2022-09-14T12:51:31.962Z,22.80
2022-09-14T12:52:37.727Z,22.80
2022-09-14T12:53:44.189Z,22.79
2022-09-14T12:55:15.373Z,22.76
2022-09-14T12:56:27.455Z,22.88
2022-09-14T12:57:46.021Z,22.75
2022-09-14T12:59:01.245Z,22.77
2022-09-14T13:00:12.137Z,22.78
2022-09-14T13:01:39.842Z,22.82
2022-09-14T13:03:20.054Z,22.98
2022-09-14T13:04:28.211Z,22.89
2022-09-14T13:05:34.611Z,22.88
2022-09-14T13:06:44.502Z,22.95
2022-09-14T13:07:47.497Z,23.05
2022-09-14T13:08:54.977Z,23.12
2022-09-14T13:09:59.915Z,23.21
2022-09-14T13:11:03.050Z,23.23
2022-09-14T13:12:10.341Z,23.15
2022-09-14T13:13:21.126Z,23.25
2022-09-14T13:14:30.930Z,23.37
2022-09-14T13:15:37.277Z,23.39
2022-09-14T13:16:44.773Z,23.49
2022-09-14T13:18:04.716Z,23.47
2022-09-14T13:19:26.853Z,23.57
2022-09-14T13:20:32.392Z,23.51
2022-09-14T13:21:35.353Z,23.56
2022-09-14T13:22:43.344Z,23.65
2022-09-14T13:23:46.585Z,23.70
2022-09-14T13:24:50.180Z,23.67
2022-09-14T13:25:53.915Z,23.68
2022-09-14T13:27:00.200Z,23.52
2022-09-14T13:28:13.846Z,23.40
2022-09-14T13:29:16.765Z,23.28
2022-09-14T13:30:22.726Z,23.27
2022-09-14T13:31:39.809Z,23.25
2022-09-14T13:32:47.050Z,23.20
2022-09-14T13:33:53.417Z,23.21
2022-09-14T13:35:00.243Z,23.18
2022-09-14T13:36:04.500Z,23.11
2022-09-14T13:37:07.904Z,23.12
2022-09-14T13:38:20.486Z,23.11
2022-09-14T13:39:26.806Z,23.20
2022-09-14T13:40:31.094Z,23.23
2022-09-14T13:41:34.283Z,23.26
2022-09-14T13:42:37.425Z,23.28
2022-09-14T13:43:42.148Z,23.22
2022-09-14T13:44:47.077Z,23.16
2022-09-14T13:45:51.875Z,23.06
2022-09-14T13:46:57.214Z,23.13
2022-09-14T13:48:00.661Z,23.11
2022-09-14T13:49:07.330Z,23.07
2022-09-14T13:50:14.087Z,23.12
2022-09-14T13:51:22.204Z,23.12
2022-09-14T13:52:43.077Z,23.06
2022-09-14T13:53:52.171Z,23.07
2022-09-14T13:55:20.882Z,23.14
2022-09-14T13:56:32.680Z,23.12
2022-09-14T13:57:35.694Z,23.14
2022-09-14T13:58:38.808Z,23.09
2022-09-14T14:00:03.916Z,23.11
2022-09-14T14:01:07.229Z,23.07
2022-09-14T14:02:14.172Z,23.13
2022-09-14T14:03:47.081Z,23.13
2022-09-14T14:04:53.111Z,23.14
2022-09-14T14:05:56.753Z,23.11
2022-09-14T14:07:31.977Z,23.09
2022-09-14T14:08:37.524Z,23.10
2022-09-14T14:09:51.006Z,23.10
2022-09-14T14:10:55.774Z,23.14
2022-09-14T14:11:58.966Z,23.20
2022-09-14T14:13:03.022Z,23.22
2022-09-14T14:14:17.911Z,23.24
2022-09-14T14:15:20.758Z,23.25
2022-09-14T14:16:26.982Z,23.33
2022-09-14T14:18:42.189Z,23.36
2022-09-14T14:19:53.319Z,23.34
2022-09-14T14:21:30.439Z,23.37
2022-09-14T14:22:35.858Z,23.31
2022-09-14T14:24:02.646Z,23.22
2022-09-14T14:25:19.817Z,23.19
2022-09-14T14:26:30.158Z,23.20
2022-09-14T14:27:43.460Z,23.27
2022-09-14T14:28:46.563Z,23.34
2022-09-14T14:29:52.693Z,23.24
2022-09-14T14:30:57.486Z,23.28
2022-09-14T14:32:00.445Z,23.31
2022-09-14T14:33:03.715Z,23.31
2022-09-14T14:34:22.255Z,23.28
2022-09-14T14:35:31.367Z,23.27
2022-09-14T14:36:34.344Z,23.33
2022-09-14T14:37:37.262Z,23.31
2022-09-14T14:38:46.184Z,23.26
2022-09-14T14:39:49.845Z,23.22
2022-09-14T14:40:55.343Z,23.19
2022-09-14T14:42:00.479Z,23.16
2022-09-14T14:43:04.783Z,23.16
2022-09-14T14:44:14.921Z,23.21
2022-09-14T14:45:21.114Z,23.23
2022-09-14T14:46:25.614Z,23.21
2022-09-14T14:47:28.337Z,23.28
2022-09-14T14:48:31.739Z,23.33
2022-09-14T14:49:34.731Z,23.30
2022-09-14T14:50:38.278Z,23.34